CW8514 Weather Reports


Display with metric or nautical units.
time (UTC)temp
F
wind
direction
speed
MPH
gust
MPH
rain 1hr
in
rain 24hr
in
rain mn
in
humidity
%
barometer
mb
20190221081558 45 355 1.0 3.0 0.00 0.00 0.00 67 1002.2
20190221080111 46 338 1.0 2.0 0.00 0.00 0.00 66 1002.4
20190221074530 48 338 1.0 8.0 0.00 0.00 0.00 64 1002.3
20190221073042 49 278 4.0 17.0 0.00 0.00 0.00 64 1002.5
20190221071549 50 277 9.0 18.0 0.00 0.00 0.00 63 1002.6
20190221070100 50 296 9.0 21.0 0.00 0.00 0.00 63 1002.5
20190221064532 50 232 10.0 21.0 0.00 0.00 0.00 62 1002.5
20190221063038 50 297 10.0 22.0 0.00 0.00 0.00 63 1002.6
20190221061628 50 265 9.0 18.0 0.00 0.00 0.00 63 1002.9
20190221060036 50 297 8.0 16.0 0.00 0.00 0.00 63 1002.8
20190221054536 50 249 11.0 19.0 0.00 0.00 0.00 64 1002.8
20190221053107 50 283 12.0 20.0 0.00 0.00 0.00 63 1002.8
20190221051615 51 283 10.0 23.0 0.00 0.00 0.00 63 1003.2
20190221050040 51 288 10.0 20.0 0.00 0.00 0.00 62 1003.3
20190221044540 51 277 16.0 26.0 0.00 0.00 0.00 62 1003.2
20190221043020 51 293 15.0 31.0 0.00 0.00 0.00 62 1003.0
20190221041534 51 304 12.0 23.0 0.00 0.00 0.00 61 1003.0
20190221040023 51 296 14.0 30.0 0.00 0.00 0.00 60 1003.1
20190221034519 51 308 13.0 22.0 0.00 0.00 0.00 60 1003.4
20190221033046 51 294 12.0 22.0 0.00 0.00 0.00 61 1003.7
20190221031532 51 255 11.0 21.0 0.00 0.00 0.00 60 1004.1
20190221030029 51 297 14.0 28.0 0.00 0.00 0.00 60 1003.7
20190221024529 52 290 13.0 24.0 0.00 0.00 0.00 61 1003.7
20190221023017 52 257 14.0 25.0 0.00 0.00 0.00 60 1004.0
20190221021514 52 255 13.0 23.0 0.00 0.00 0.00 59 1004.1
20190221020032 52 297 10.0 20.0 0.00 0.00 0.00 61 1004.2
20190221014516 53 286 10.0 21.0 0.00 0.00 0.00 64 1004.2
20190221013012 53 259 11.0 24.0 0.00 0.00 0.00 63 1004.1
20190221011506 53 290 13.0 27.0 0.00 0.00 0.00 63 1004.5
20190221010007 54 258 12.0 22.0 0.00 0.00 0.00 64 1004.8
20190221004503 53 231 12.0 20.0 0.00 0.00 0.00 63 1004.9
20190221003202 54 304 10.0 21.0 0.00 0.00 0.00 60 1005.1
20190221001714 55 296 12.0 28.0 0.00 0.00 0.00 63 1005.2
20190221000226 55 287 15.0 25.0 0.00 0.00 0.00 61 1005.2
20190220234637 56 302 10.0 22.0 0.00 0.00 0.00 62 1005.7
20190220233137 56 310 14.0 27.0 0.00 0.00 0.00 58 1006.0
20190220231714 57 264 13.0 24.0 0.00 0.00 0.00 59 1006.2
20190220230156 57 324 10.0 22.0 0.00 0.00 0.00 59 1006.4
20190220224640 57 276 10.0 23.0 0.00 0.00 0.00 62 1006.7
20190220223153 57 279 13.0 24.0 0.00 0.00 0.00 58 1006.9
20190220221600 58 283 9.0 20.0 0.00 0.00 0.00 59 1007.1
20190220220133 57 293 5.0 17.0 0.00 0.00 0.00 58 1007.7
20190220214615 58 242 8.0 18.0 0.00 0.00 0.00 57 1007.9
20190220213101 58 265 4.0 11.0 0.00 0.00 0.00 49 1008.2
20190220211602 57 254 2.0 8.0 0.00 0.00 0.00 49 1008.5
20190220210146 57 294 5.0 9.0 0.00 0.00 0.00 50 1008.8
20190220204609 56 168 1.0 8.0 0.00 0.00 0.00 53 1009.0
20190220203052 54 150 3.0 7.0 0.00 0.00 0.00 54 1009.5
20190220201550 55 143 2.0 6.0 0.00 0.00 0.00 51 1009.8
20190220200100 53 144 2.0 5.0 0.00 0.00 0.00 51 1010.2
20190220194616 53 149 3.0 7.0 0.00 0.00 0.00 50 1010.4
20190220193025 53 228 2.0 6.0 0.00 0.00 0.00 48 1010.8
20190220191543 53 162 2.0 8.0 0.00 0.00 0.00 50 1011.2
20190220190026 54 173 2.0 6.0 0.00 0.00 0.00 46 1011.4
20190220184529 54 178 3.0 6.0 0.00 0.00 0.00 47 1011.5
20190220183019 53 232 2.0 5.0 0.00 0.00 0.00 45 1011.8
20190220181519 52 217 2.0 6.0 0.00 0.00 0.00 50 1011.9
20190220180008 53 148 2.0 6.0 0.00 0.00 0.00 48 1011.9
20190220174503 52 155 0.0 5.0 0.00 0.00 0.00 48 1012.3
20190220173235 51 348 0.0 3.0 0.00 0.00 0.00 49 1012.6
20190220171658 49 355 1.0 4.0 0.00 0.00 0.00 51 1012.6
20190220170137 46 346 1.0 4.0 0.00 0.00 0.00 56 1012.9
20190220164651 45 25 1.0 5.0 0.00 0.00 0.00 58 1013.1
20190220163117 43 355 3.0 8.0 0.00 0.00 0.00 61 1013.0
20190220161630 41 12 4.0 10.0 0.00 0.00 0.00 63 1013.2
20190220160120 40 360 4.0 9.0 0.00 0.00 0.00 66 1013.4
20190220154613 39 5 5.0 11.0 0.00 0.00 0.00 67 1013.5
20190220153040 38 17 6.0 11.0 0.00 0.00 0.00 67 1013.4
20190220151617 38 351 3.0 11.0 0.00 0.00 0.00 67 1013.3
20190220150104 38 22 4.0 11.0 0.00 0.00 0.00 69 1013.4
20190220144544 37 17 4.0 9.0 0.00 0.00 0.00 68 1013.2
20190220143100 37 348 4.0 9.0 0.00 0.00 0.00 68 1013.5
20190220141551 38 9 5.0 10.0 0.00 0.00 0.00 68 1013.6
20190220140043 38 5 4.0 9.0 0.00 0.00 0.00 67 1013.7
20190220134531 38 334 3.0 9.0 0.00 0.00 0.00 66 1013.7
20190220133039 38 9 6.0 10.0 0.00 0.00 0.00 67 1013.8
20190220131511 38 17 4.0 7.0 0.00 0.00 0.00 66 1013.9
20190220130027 39 350 3.0 10.0 0.00 0.00 0.00 65 1014.0
20190220124507 39 332 2.0 6.0 0.00 0.00 0.00 65 1013.9
20190220123004 40 355 5.0 10.0 0.00 0.00 0.00 64 1014.1
20190220121502 40 5 5.0 10.0 0.00 0.00 0.00 64 1014.1
20190220120234 40 11 4.0 8.0 0.00 0.00 0.00 64 1014.0
20190220114706 40 355 3.0 9.0 0.00 0.00 0.00 63 1014.2
20190220113143 40 9 3.0 9.0 0.00 0.00 0.00 64 1014.8
20190220111643 40 328 3.0 6.0 0.00 0.00 0.00 65 1014.7
20190220110121 41 355 2.0 5.0 0.00 0.00 0.00 63 1014.6
20190220104607 42 5 3.0 8.0 0.00 0.00 0.00 62 1014.7
20190220103115 42 355 3.0 6.0 0.00 0.00 0.00 61 1014.9
20190220101843 42 349 4.0 6.0 0.00 0.00 0.00 61 1015.0
20190220100139 42 329 2.0 9.0 0.00 0.00 0.00 61 1015.3
20190220094634 42 18 2.0 5.0 0.00 0.00 0.00 63 1015.2
20190220093105 42 14 2.0 6.0 0.00 0.00 0.00 63 1015.3
20190220091612 42 24 3.0 6.0 0.00 0.00 0.00 62 1015.4
20190220090104 42 355 2.0 6.0 0.00 0.00 0.00 61 1015.4
20190220084541 42 329 3.0 6.0 0.00 0.00 0.00 62 1015.5
20190220083115 42 338 2.0 5.0 0.00 0.00 0.00 60 1015.7